sensor_id;sensor_type;location;lat;lon;timestamp;P1;durP1;ratioP1;P2;durP2;ratioP2
45338;SDS011;31071;51.478;5.710;2024-03-29T00:00:48;3.08;;;0.80;;
45338;SDS011;31071;51.478;5.710;2024-03-29T00:03:39;2.63;;;0.60;;
45338;SDS011;31071;51.478;5.710;2024-03-29T00:06:04;7.28;;;0.90;;
45338;SDS011;31071;51.478;5.710;2024-03-29T00:08:30;3.22;;;0.70;;
45338;SDS011;31071;51.478;5.710;2024-03-29T00:10:58;3.25;;;0.50;;
45338;SDS011;31071;51.478;5.710;2024-03-29T00:13:24;3.30;;;1.02;;
45338;SDS011;31071;51.478;5.710;2024-03-29T00:15:50;6.43;;;1.25;;
45338;SDS011;31071;51.478;5.710;2024-03-29T00:18:16;4.60;;;0.82;;
45338;SDS011;31071;51.478;5.710;2024-03-29T00:20:41;4.78;;;0.70;;
45338;SDS011;31071;51.478;5.710;2024-03-29T00:23:07;2.58;;;0.40;;
45338;SDS011;31071;51.478;5.710;2024-03-29T00:25:32;4.80;;;1.30;;
45338;SDS011;31071;51.478;5.710;2024-03-29T00:27:58;3.13;;;0.70;;
45338;SDS011;31071;51.478;5.710;2024-03-29T00:30:24;2.88;;;0.55;;
45338;SDS011;31071;51.478;5.710;2024-03-29T00:32:49;4.22;;;0.50;;
45338;SDS011;31071;51.478;5.710;2024-03-29T00:35:15;4.75;;;0.60;;
45338;SDS011;31071;51.478;5.710;2024-03-29T00:37:41;2.10;;;0.70;;
45338;SDS011;31071;51.478;5.710;2024-03-29T00:40:06;2.80;;;0.60;;
45338;SDS011;31071;51.478;5.710;2024-03-29T00:42:32;4.53;;;0.80;;
45338;SDS011;31071;51.478;5.710;2024-03-29T00:44:58;4.22;;;0.80;;
45338;SDS011;31071;51.478;5.710;2024-03-29T00:47:23;2.63;;;0.80;;
45338;SDS011;31071;51.478;5.710;2024-03-29T00:49:49;3.20;;;0.60;;
45338;SDS011;31071;51.478;5.710;2024-03-29T00:52:15;2.80;;;0.77;;
45338;SDS011;31071;51.478;5.710;2024-03-29T00:54:41;6.10;;;0.75;;
45338;SDS011;31071;51.478;5.710;2024-03-29T00:57:06;2.03;;;0.57;;
45338;SDS011;31071;51.478;5.710;2024-03-29T00:59:37;3.20;;;0.77;;
45338;SDS011;31071;51.478;5.710;2024-03-29T01:02:03;6.35;;;0.80;;
45338;SDS011;31071;51.478;5.710;2024-03-29T01:04:29;6.72;;;0.75;;
45338;SDS011;31071;51.478;5.710;2024-03-29T01:06:54;2.50;;;0.70;;
45338;SDS011;31071;51.478;5.710;2024-03-29T01:09:21;2.17;;;0.80;;
45338;SDS011;31071;51.478;5.710;2024-03-29T01:11:46;3.85;;;0.80;;
45338;SDS011;31071;51.478;5.710;2024-03-29T01:14:12;4.50;;;1.08;;
45338;SDS011;31071;51.478;5.710;2024-03-29T01:16:44;3.05;;;0.77;;
45338;SDS011;31071;51.478;5.710;2024-03-29T01:19:10;2.83;;;0.93;;
45338;SDS011;31071;51.478;5.710;2024-03-29T01:21:36;5.07;;;1.10;;
45338;SDS011;31071;51.478;5.710;2024-03-29T01:24:02;3.38;;;0.90;;
45338;SDS011;31071;51.478;5.710;2024-03-29T01:26:31;2.15;;;0.52;;
45338;SDS011;31071;51.478;5.710;2024-03-29T01:28:56;4.85;;;0.65;;
45338;SDS011;31071;51.478;5.710;2024-03-29T01:31:22;2.03;;;0.50;;
45338;SDS011;31071;51.478;5.710;2024-03-29T01:33:49;2.90;;;0.40;;
45338;SDS011;31071;51.478;5.710;2024-03-29T01:36:15;4.25;;;0.80;;
45338;SDS011;31071;51.478;5.710;2024-03-29T01:38:40;5.15;;;0.68;;
45338;SDS011;31071;51.478;5.710;2024-03-29T01:41:07;5.25;;;0.70;;
45338;SDS011;31071;51.478;5.710;2024-03-29T01:43:32;2.28;;;0.75;;
45338;SDS011;31071;51.478;5.710;2024-03-29T01:46:01;2.33;;;0.63;;
45338;SDS011;31071;51.478;5.710;2024-03-29T01:48:28;2.53;;;1.00;;
45338;SDS011;31071;51.478;5.710;2024-03-29T01:51:03;3.90;;;0.60;;
45338;SDS011;31071;51.478;5.710;2024-03-29T01:53:29;4.88;;;0.63;;
45338;SDS011;31071;51.478;5.710;2024-03-29T01:55:55;3.40;;;0.75;;
45338;SDS011;31071;51.478;5.710;2024-03-29T01:58:21;1.73;;;0.68;;
45338;SDS011;31071;51.478;5.710;2024-03-29T02:00:52;7.32;;;0.88;;
45338;SDS011;31071;51.478;5.710;2024-03-29T02:03:20;3.15;;;0.68;;
45338;SDS011;31071;51.478;5.710;2024-03-29T02:05:49;1.42;;;0.60;;
45338;SDS011;31071;51.478;5.710;2024-03-29T02:08:15;3.72;;;0.77;;
45338;SDS011;31071;51.478;5.710;2024-03-29T02:10:41;3.47;;;0.70;;
45338;SDS011;31071;51.478;5.710;2024-03-29T02:13:08;1.67;;;0.60;;
45338;SDS011;31071;51.478;5.710;2024-03-29T02:15:34;4.50;;;0.65;;
45338;SDS011;31071;51.478;5.710;2024-03-29T02:17:59;4.13;;;0.57;;
45338;SDS011;31071;51.478;5.710;2024-03-29T02:20:25;3.50;;;0.50;;
45338;SDS011;31071;51.478;5.710;2024-03-29T02:22:53;3.15;;;0.65;;
45338;SDS011;31071;51.478;5.710;2024-03-29T02:25:20;1.20;;;0.50;;
45338;SDS011;31071;51.478;5.710;2024-03-29T02:27:46;3.08;;;0.80;;
45338;SDS011;31071;51.478;5.710;2024-03-29T02:30:16;4.85;;;0.80;;
45338;SDS011;31071;51.478;5.710;2024-03-29T02:32:42;2.00;;;0.60;;
45338;SDS011;31071;51.478;5.710;2024-03-29T02:35:08;3.78;;;0.90;;
45338;SDS011;31071;51.478;5.710;2024-03-29T02:37:37;2.30;;;0.70;;
45338;SDS011;31071;51.478;5.710;2024-03-29T02:40:04;3.10;;;0.60;;
45338;SDS011;31071;51.478;5.710;2024-03-29T02:42:30;4.53;;;0.90;;
45338;SDS011;31071;51.478;5.710;2024-03-29T02:44:57;6.35;;;0.70;;
45338;SDS011;31071;51.478;5.710;2024-03-29T02:47:23;2.20;;;0.80;;
45338;SDS011;31071;51.478;5.710;2024-03-29T02:49:51;5.53;;;1.50;;
45338;SDS011;31071;51.478;5.710;2024-03-29T02:52:17;3.47;;;0.73;;
45338;SDS011;31071;51.478;5.710;2024-03-29T02:54:45;3.83;;;0.50;;
45338;SDS011;31071;51.478;5.710;2024-03-29T02:57:11;1.85;;;0.93;;
45338;SDS011;31071;51.478;5.710;2024-03-29T02:59:36;1.88;;;0.70;;
45338;SDS011;31071;51.478;5.710;2024-03-29T03:02:04;3.47;;;0.88;;
45338;SDS011;31071;51.478;5.710;2024-03-29T03:04:30;2.55;;;0.63;;
45338;SDS011;31071;51.478;5.710;2024-03-29T03:06:58;3.88;;;0.68;;
45338;SDS011;31071;51.478;5.710;2024-03-29T03:09:44;2.95;;;0.77;;
45338;SDS011;31071;51.478;5.710;2024-03-29T03:12:31;1.60;;;0.73;;
45338;SDS011;31071;51.478;5.710;2024-03-29T03:14:59;3.13;;;0.57;;
45338;SDS011;31071;51.478;5.710;2024-03-29T03:17:26;3.15;;;0.80;;
45338;SDS011;31071;51.478;5.710;2024-03-29T03:19:53;3.60;;;0.68;;
45338;SDS011;31071;51.478;5.710;2024-03-29T03:22:18;2.40;;;0.40;;
45338;SDS011;31071;51.478;5.710;2024-03-29T03:24:44;0.90;;;0.30;;
45338;SDS011;31071;51.478;5.710;2024-03-29T03:27:10;3.95;;;0.68;;
45338;SDS011;31071;51.478;5.710;2024-03-29T03:29:35;2.95;;;0.70;;
45338;SDS011;31071;51.478;5.710;2024-03-29T03:32:01;2.13;;;0.70;;
45338;SDS011;31071;51.478;5.710;2024-03-29T03:34:27;2.20;;;0.70;;
45338;SDS011;31071;51.478;5.710;2024-03-29T03:36:52;2.38;;;0.50;;
45338;SDS011;31071;51.478;5.710;2024-03-29T03:39:18;2.05;;;0.60;;
45338;SDS011;31071;51.478;5.710;2024-03-29T03:41:47;2.15;;;0.85;;
45338;SDS011;31071;51.478;5.710;2024-03-29T03:44:24;3.10;;;0.40;;
45338;SDS011;31071;51.478;5.710;2024-03-29T03:46:53;2.58;;;0.52;;
45338;SDS011;31071;51.478;5.710;2024-03-29T03:49:19;1.23;;;0.60;;
45338;SDS011;31071;51.478;5.710;2024-03-29T03:51:45;2.47;;;0.47;;
45338;SDS011;31071;51.478;5.710;2024-03-29T03:54:11;1.25;;;0.52;;
45338;SDS011;31071;51.478;5.710;2024-03-29T03:56:36;1.88;;;0.47;;
45338;SDS011;31071;51.478;5.710;2024-03-29T03:59:02;1.60;;;0.55;;
45338;SDS011;31071;51.478;5.710;2024-03-29T04:01:34;1.80;;;0.40;;
45338;SDS011;31071;51.478;5.710;2024-03-29T04:04:00;1.92;;;0.60;;
45338;SDS011;31071;51.478;5.710;2024-03-29T04:06:26;1.55;;;0.52;;
45338;SDS011;31071;51.478;5.710;2024-03-29T04:08:51;3.70;;;0.60;;
45338;SDS011;31071;51.478;5.710;2024-03-29T04:11:20;4.10;;;0.60;;
45338;SDS011;31071;51.478;5.710;2024-03-29T04:13:54;3.00;;;0.57;;
45338;SDS011;31071;51.478;5.710;2024-03-29T04:16:20;1.80;;;0.63;;
45338;SDS011;31071;51.478;5.710;2024-03-29T04:18:46;2.83;;;0.75;;
45338;SDS011;31071;51.478;5.710;2024-03-29T04:21:11;1.83;;;0.60;;
45338;SDS011;31071;51.478;5.710;2024-03-29T04:23:37;1.20;;;0.60;;
45338;SDS011;31071;51.478;5.710;2024-03-29T04:26:02;5.47;;;0.70;;
45338;SDS011;31071;51.478;5.710;2024-03-29T04:28:31;3.63;;;0.70;;
45338;SDS011;31071;51.478;5.710;2024-03-29T04:31:00;3.63;;;0.70;;
45338;SDS011;31071;51.478;5.710;2024-03-29T04:33:29;2.78;;;0.75;;
45338;SDS011;31071;51.478;5.710;2024-03-29T04:36:01;1.65;;;1.00;;
45338;SDS011;31071;51.478;5.710;2024-03-29T04:38:31;2.47;;;0.95;;
45338;SDS011;31071;51.478;5.710;2024-03-29T04:41:00;1.23;;;0.63;;
45338;SDS011;31071;51.478;5.710;2024-03-29T04:43:28;4.82;;;1.00;;
45338;SDS011;31071;51.478;5.710;2024-03-29T04:46:06;4.82;;;1.33;;
45338;SDS011;31071;51.478;5.710;2024-03-29T04:48:36;6.10;;;1.58;;
45338;SDS011;31071;51.478;5.710;2024-03-29T04:51:02;4.15;;;1.10;;
45338;SDS011;31071;51.478;5.710;2024-03-29T04:53:29;6.65;;;1.00;;
45338;SDS011;31071;51.478;5.710;2024-03-29T04:55:58;3.38;;;0.82;;
45338;SDS011;31071;51.478;5.710;2024-03-29T04:58:39;1.65;;;0.70;;
45338;SDS011;31071;51.478;5.710;2024-03-29T05:01:07;4.70;;;0.77;;
45338;SDS011;31071;51.478;5.710;2024-03-29T05:03:39;3.78;;;0.68;;
45338;SDS011;31071;51.478;5.710;2024-03-29T05:06:16;1.92;;;0.70;;
45338;SDS011;31071;51.478;5.710;2024-03-29T05:08:42;3.22;;;0.73;;
45338;SDS011;31071;51.478;5.710;2024-03-29T05:11:20;2.22;;;0.80;;
45338;SDS011;31071;51.478;5.710;2024-03-29T05:13:49;1.85;;;0.60;;
45338;SDS011;31071;51.478;5.710;2024-03-29T05:16:14;2.00;;;0.70;;
45338;SDS011;31071;51.478;5.710;2024-03-29T05:18:46;1.73;;;0.80;;
45338;SDS011;31071;51.478;5.710;2024-03-29T05:24:05;1.70;;;0.50;;
45338;SDS011;31071;51.478;5.710;2024-03-29T05:26:31;3.38;;;0.93;;
45338;SDS011;31071;51.478;5.710;2024-03-29T05:28:57;2.65;;;0.80;;
45338;SDS011;31071;51.478;5.710;2024-03-29T05:31:23;1.65;;;0.70;;
45338;SDS011;31071;51.478;5.710;2024-03-29T05:33:52;2.67;;;1.00;;
45338;SDS011;31071;51.478;5.710;2024-03-29T05:36:17;2.10;;;0.90;;
45338;SDS011;31071;51.478;5.710;2024-03-29T05:38:44;2.25;;;0.90;;
45338;SDS011;31071;51.478;5.710;2024-03-29T05:41:10;5.03;;;1.20;;
45338;SDS011;31071;51.478;5.710;2024-03-29T05:43:35;4.55;;;0.95;;
45338;SDS011;31071;51.478;5.710;2024-03-29T05:46:01;3.17;;;1.10;;
45338;SDS011;31071;51.478;5.710;2024-03-29T05:48:27;7.25;;;1.30;;
45338;SDS011;31071;51.478;5.710;2024-03-29T05:50:54;5.55;;;1.30;;
45338;SDS011;31071;51.478;5.710;2024-03-29T05:53:19;15.80;;;1.83;;
45338;SDS011;31071;51.478;5.710;2024-03-29T05:55:45;16.15;;;1.38;;
45338;SDS011;31071;51.478;5.710;2024-03-29T05:58:11;10.95;;;1.20;;
45338;SDS011;31071;51.478;5.710;2024-03-29T06:00:46;9.10;;;1.23;;
45338;SDS011;31071;51.478;5.710;2024-03-29T06:03:12;7.22;;;1.10;;
45338;SDS011;31071;51.478;5.710;2024-03-29T06:05:39;4.40;;;1.30;;
45338;SDS011;31071;51.478;5.710;2024-03-29T06:08:05;3.00;;;1.30;;
45338;SDS011;31071;51.478;5.710;2024-03-29T06:10:31;4.88;;;1.50;;
45338;SDS011;31071;51.478;5.710;2024-03-29T06:12:56;7.53;;;1.20;;
45338;SDS011;31071;51.478;5.710;2024-03-29T06:15:31;2.90;;;1.20;;
45338;SDS011;31071;51.478;5.710;2024-03-29T06:18:18;2.95;;;1.40;;
45338;SDS011;31071;51.478;5.710;2024-03-29T06:20:50;9.20;;;1.42;;
45338;SDS011;31071;51.478;5.710;2024-03-29T06:23:19;5.50;;;1.52;;
45338;SDS011;31071;51.478;5.710;2024-03-29T06:25:45;4.05;;;1.30;;
45338;SDS011;31071;51.478;5.710;2024-03-29T06:28:11;2.45;;;1.50;;
45338;SDS011;31071;51.478;5.710;2024-03-29T06:30:40;5.97;;;1.33;;
45338;SDS011;31071;51.478;5.710;2024-03-29T06:33:06;5.10;;;1.38;;
45338;SDS011;31071;51.478;5.710;2024-03-29T06:35:33;2.75;;;1.45;;
45338;SDS011;31071;51.478;5.710;2024-03-29T06:37:58;3.80;;;1.40;;
45338;SDS011;31071;51.478;5.710;2024-03-29T06:40:24;3.10;;;1.13;;
45338;SDS011;31071;51.478;5.710;2024-03-29T06:42:49;6.00;;;1.52;;
45338;SDS011;31071;51.478;5.710;2024-03-29T06:45:23;5.63;;;1.60;;
45338;SDS011;31071;51.478;5.710;2024-03-29T06:47:49;5.40;;;1.45;;
45338;SDS011;31071;51.478;5.710;2024-03-29T06:50:17;3.15;;;1.30;;
45338;SDS011;31071;51.478;5.710;2024-03-29T06:52:49;4.22;;;1.50;;
45338;SDS011;31071;51.478;5.710;2024-03-29T06:55:23;6.85;;;1.50;;
45338;SDS011;31071;51.478;5.710;2024-03-29T06:57:51;2.60;;;1.00;;
45338;SDS011;31071;51.478;5.710;2024-03-29T07:00:20;3.05;;;1.27;;
45338;SDS011;31071;51.478;5.710;2024-03-29T07:02:48;1.98;;;1.15;;
45338;SDS011;31071;51.478;5.710;2024-03-29T07:05:17;1.65;;;1.08;;
45338;SDS011;31071;51.478;5.710;2024-03-29T07:07:52;2.25;;;1.05;;
45338;SDS011;31071;51.478;5.710;2024-03-29T07:10:29;4.13;;;1.38;;
45338;SDS011;31071;51.478;5.710;2024-03-29T07:12:59;2.20;;;1.23;;
45338;SDS011;31071;51.478;5.710;2024-03-29T07:15:51;6.20;;;1.63;;
45338;SDS011;31071;51.478;5.710;2024-03-29T07:18:17;2.78;;;1.50;;
45338;SDS011;31071;51.478;5.710;2024-03-29T07:20:43;4.78;;;1.70;;
45338;SDS011;31071;51.478;5.710;2024-03-29T07:23:09;5.68;;;2.08;;
45338;SDS011;31071;51.478;5.710;2024-03-29T07:25:39;5.95;;;2.00;;
45338;SDS011;31071;51.478;5.710;2024-03-29T07:28:12;4.65;;;2.10;;
45338;SDS011;31071;51.478;5.710;2024-03-29T07:30:41;3.00;;;1.42;;
45338;SDS011;31071;51.478;5.710;2024-03-29T07:33:07;7.53;;;1.38;;
45338;SDS011;31071;51.478;5.710;2024-03-29T07:35:34;2.38;;;1.30;;
45338;SDS011;31071;51.478;5.710;2024-03-29T07:38:00;4.10;;;1.10;;
45338;SDS011;31071;51.478;5.710;2024-03-29T07:40:26;2.28;;;1.10;;
45338;SDS011;31071;51.478;5.710;2024-03-29T07:42:51;2.28;;;1.10;;
45338;SDS011;31071;51.478;5.710;2024-03-29T07:45:17;4.82;;;1.30;;
45338;SDS011;31071;51.478;5.710;2024-03-29T07:47:52;3.78;;;0.82;;
45338;SDS011;31071;51.478;5.710;2024-03-29T07:50:42;3.90;;;1.10;;
45338;SDS011;31071;51.478;5.710;2024-03-29T07:53:09;4.10;;;1.38;;
45338;SDS011;31071;51.478;5.710;2024-03-29T07:55:39;1.63;;;1.00;;
45338;SDS011;31071;51.478;5.710;2024-03-29T07:58:06;1.50;;;0.90;;
45338;SDS011;31071;51.478;5.710;2024-03-29T08:00:34;3.97;;;1.15;;
45338;SDS011;31071;51.478;5.710;2024-03-29T08:03:00;3.47;;;1.00;;
45338;SDS011;31071;51.478;5.710;2024-03-29T08:05:31;2.08;;;1.10;;
45338;SDS011;31071;51.478;5.710;2024-03-29T08:08:01;3.83;;;1.05;;
45338;SDS011;31071;51.478;5.710;2024-03-29T08:10:28;1.27;;;1.17;;
45338;SDS011;31071;51.478;5.710;2024-03-29T08:12:54;3.03;;;1.20;;
45338;SDS011;31071;51.478;5.710;2024-03-29T08:15:20;5.28;;;1.55;;
45338;SDS011;31071;51.478;5.710;2024-03-29T08:17:45;4.72;;;1.60;;
45338;SDS011;31071;51.478;5.710;2024-03-29T08:20:11;2.72;;;1.88;;
45338;SDS011;31071;51.478;5.710;2024-03-29T08:22:37;3.50;;;1.40;;
45338;SDS011;31071;51.478;5.710;2024-03-29T08:25:03;7.13;;;1.95;;
45338;SDS011;31071;51.478;5.710;2024-03-29T08:27:28;4.72;;;2.10;;
45338;SDS011;31071;51.478;5.710;2024-03-29T08:29:54;4.72;;;2.00;;
45338;SDS011;31071;51.478;5.710;2024-03-29T08:32:20;3.53;;;2.05;;
45338;SDS011;31071;51.478;5.710;2024-03-29T08:34:46;4.82;;;1.90;;
45338;SDS011;31071;51.478;5.710;2024-03-29T08:37:12;4.70;;;2.00;;
45338;SDS011;31071;51.478;5.710;2024-03-29T08:39:37;4.10;;;1.75;;
45338;SDS011;31071;51.478;5.710;2024-03-29T08:42:06;5.18;;;2.47;;
45338;SDS011;31071;51.478;5.710;2024-03-29T08:47:01;6.90;;;2.63;;
45338;SDS011;31071;51.478;5.710;2024-03-29T08:49:46;7.75;;;2.80;;
45338;SDS011;31071;51.478;5.710;2024-03-29T08:52:45;6.25;;;2.75;;
45338;SDS011;31071;51.478;5.710;2024-03-29T08:55:10;7.93;;;2.33;;
45338;SDS011;31071;51.478;5.710;2024-03-29T08:57:42;5.68;;;2.25;;
45338;SDS011;31071;51.478;5.710;2024-03-29T09:00:11;4.43;;;2.25;;
45338;SDS011;31071;51.478;5.710;2024-03-29T09:02:37;3.70;;;2.03;;
45338;SDS011;31071;51.478;5.710;2024-03-29T09:05:07;3.05;;;2.17;;
45338;SDS011;31071;51.478;5.710;2024-03-29T09:07:32;6.47;;;2.00;;
45338;SDS011;31071;51.478;5.710;2024-03-29T09:09:59;2.63;;;1.88;;
45338;SDS011;31071;51.478;5.710;2024-03-29T09:12:24;3.72;;;2.13;;
45338;SDS011;31071;51.478;5.710;2024-03-29T09:14:51;4.20;;;2.00;;
45338;SDS011;31071;51.478;5.710;2024-03-29T09:17:17;3.03;;;1.90;;
45338;SDS011;31071;51.478;5.710;2024-03-29T09:19:42;2.42;;;1.70;;
45338;SDS011;31071;51.478;5.710;2024-03-29T09:22:08;2.75;;;1.50;;
45338;SDS011;31071;51.478;5.710;2024-03-29T09:24:34;2.60;;;1.63;;
45338;SDS011;31071;51.478;5.710;2024-03-29T09:27:22;4.72;;;2.03;;
45338;SDS011;31071;51.478;5.710;2024-03-29T09:30:01;5.72;;;1.85;;
45338;SDS011;31071;51.478;5.710;2024-03-29T09:32:29;3.88;;;1.90;;
45338;SDS011;31071;51.478;5.710;2024-03-29T09:34:55;4.18;;;1.90;;
45338;SDS011;31071;51.478;5.710;2024-03-29T09:37:25;3.88;;;1.98;;
45338;SDS011;31071;51.478;5.710;2024-03-29T09:39:51;2.67;;;1.70;;
45338;SDS011;31071;51.478;5.710;2024-03-29T09:42:16;4.53;;;1.63;;
45338;SDS011;31071;51.478;5.710;2024-03-29T09:44:43;3.08;;;1.60;;
45338;SDS011;31071;51.478;5.710;2024-03-29T09:47:10;2.92;;;1.80;;
45338;SDS011;31071;51.478;5.710;2024-03-29T09:49:40;2.63;;;1.60;;
45338;SDS011;31071;51.478;5.710;2024-03-29T09:52:09;2.63;;;1.45;;
45338;SDS011;31071;51.478;5.710;2024-03-29T09:54:35;4.13;;;1.50;;
45338;SDS011;31071;51.478;5.710;2024-03-29T09:57:00;4.32;;;1.50;;
45338;SDS011;31071;51.478;5.710;2024-03-29T09:59:27;3.83;;;1.67;;
45338;SDS011;31071;51.478;5.710;2024-03-29T10:01:54;3.58;;;1.48;;
45338;SDS011;31071;51.478;5.710;2024-03-29T10:04:24;2.13;;;1.50;;
45338;SDS011;31071;51.478;5.710;2024-03-29T10:06:52;3.65;;;1.70;;
45338;SDS011;31071;51.478;5.710;2024-03-29T10:09:19;3.53;;;1.45;;
45338;SDS011;31071;51.478;5.710;2024-03-29T10:11:45;3.88;;;1.27;;
45338;SDS011;31071;51.478;5.710;2024-03-29T10:14:12;2.92;;;1.60;;
45338;SDS011;31071;51.478;5.710;2024-03-29T10:16:38;2.72;;;1.15;;
45338;SDS011;31071;51.478;5.710;2024-03-29T10:19:04;2.63;;;1.20;;
45338;SDS011;31071;51.478;5.710;2024-03-29T10:21:31;1.60;;;1.00;;
45338;SDS011;31071;51.478;5.710;2024-03-29T10:23:58;2.35;;;1.20;;
45338;SDS011;31071;51.478;5.710;2024-03-29T10:26:24;2.05;;;1.00;;
45338;SDS011;31071;51.478;5.710;2024-03-29T10:28:50;2.33;;;1.27;;
45338;SDS011;31071;51.478;5.710;2024-03-29T10:31:16;3.45;;;1.23;;
45338;SDS011;31071;51.478;5.710;2024-03-29T10:33:43;3.42;;;1.00;;
45338;SDS011;31071;51.478;5.710;2024-03-29T10:36:09;2.40;;;0.90;;
45338;SDS011;31071;51.478;5.710;2024-03-29T10:38:37;3.45;;;1.02;;
45338;SDS011;31071;51.478;5.710;2024-03-29T10:41:04;1.58;;;1.00;;
45338;SDS011;31071;51.478;5.710;2024-03-29T10:43:32;2.63;;;1.10;;
45338;SDS011;31071;51.478;5.710;2024-03-29T10:46:01;1.63;;;1.02;;
45338;SDS011;31071;51.478;5.710;2024-03-29T10:48:29;2.35;;;0.80;;
45338;SDS011;31071;51.478;5.710;2024-03-29T10:50:57;2.65;;;1.08;;
45338;SDS011;31071;51.478;5.710;2024-03-29T10:53:24;2.60;;;0.90;;
45338;SDS011;31071;51.478;5.710;2024-03-29T10:55:54;4.43;;;1.00;;
45338;SDS011;31071;51.478;5.710;2024-03-29T10:58:24;1.48;;;0.73;;
45338;SDS011;31071;51.478;5.710;2024-03-29T11:00:53;3.63;;;0.70;;
45338;SDS011;31071;51.478;5.710;2024-03-29T11:06:03;1.70;;;0.93;;
45338;SDS011;31071;51.478;5.710;2024-03-29T11:08:34;1.33;;;0.80;;
45338;SDS011;31071;51.478;5.710;2024-03-29T11:11:03;1.67;;;0.73;;
45338;SDS011;31071;51.478;5.710;2024-03-29T11:13:36;1.77;;;0.90;;
45338;SDS011;31071;51.478;5.710;2024-03-29T11:16:09;1.48;;;0.70;;
45338;SDS011;31071;51.478;5.710;2024-03-29T11:18:36;0.77;;;0.77;;
45338;SDS011;31071;51.478;5.710;2024-03-29T11:21:02;0.60;;;0.60;;
45338;SDS011;31071;51.478;5.710;2024-03-29T11:23:31;1.52;;;0.75;;
45338;SDS011;31071;51.478;5.710;2024-03-29T11:25:57;3.58;;;0.80;;
45338;SDS011;31071;51.478;5.710;2024-03-29T11:28:31;2.90;;;1.10;;
45338;SDS011;31071;51.478;5.710;2024-03-29T11:31:03;1.10;;;0.60;;
45338;SDS011;31071;51.478;5.710;2024-03-29T11:36:21;4.18;;;0.90;;
45338;SDS011;31071;51.478;5.710;2024-03-29T11:38:52;6.38;;;1.23;;
45338;SDS011;31071;51.478;5.710;2024-03-29T11:41:22;1.05;;;0.55;;
45338;SDS011;31071;51.478;5.710;2024-03-29T11:43:54;1.33;;;0.40;;
45338;SDS011;31071;51.478;5.710;2024-03-29T11:46:20;3.03;;;0.50;;
45338;SDS011;31071;51.478;5.710;2024-03-29T11:48:47;0.40;;;0.30;;
45338;SDS011;31071;51.478;5.710;2024-03-29T11:51:22;0.55;;;0.35;;
45338;SDS011;31071;51.478;5.710;2024-03-29T11:53:51;4.43;;;0.60;;
45338;SDS011;31071;51.478;5.710;2024-03-29T11:56:17;0.90;;;0.40;;
45338;SDS011;31071;51.478;5.710;2024-03-29T11:58:43;0.45;;;0.30;;
45338;SDS011;31071;51.478;5.710;2024-03-29T12:01:09;1.73;;;0.40;;
45338;SDS011;31071;51.478;5.710;2024-03-29T12:03:37;0.73;;;0.40;;
45338;SDS011;31071;51.478;5.710;2024-03-29T12:06:04;0.43;;;0.30;;
45338;SDS011;31071;51.478;5.710;2024-03-29T12:08:31;1.00;;;0.25;;
45338;SDS011;31071;51.478;5.710;2024-03-29T12:10:58;0.35;;;0.20;;
45338;SDS011;31071;51.478;5.710;2024-03-29T12:13:25;0.55;;;0.30;;
45338;SDS011;31071;51.478;5.710;2024-03-29T12:15:50;0.93;;;0.40;;
45338;SDS011;31071;51.478;5.710;2024-03-29T12:18:16;1.27;;;0.32;;
45338;SDS011;31071;51.478;5.710;2024-03-29T12:20:44;0.77;;;0.30;;
45338;SDS011;31071;51.478;5.710;2024-03-29T12:23:15;1.05;;;0.40;;
45338;SDS011;31071;51.478;5.710;2024-03-29T12:25:42;1.33;;;0.50;;
45338;SDS011;31071;51.478;5.710;2024-03-29T12:28:12;2.00;;;0.30;;
45338;SDS011;31071;51.478;5.710;2024-03-29T12:30:40;1.08;;;0.40;;
45338;SDS011;31071;51.478;5.710;2024-03-29T12:33:14;2.15;;;0.47;;
45338;SDS011;31071;51.478;5.710;2024-03-29T12:35:44;0.82;;;0.50;;
45338;SDS011;31071;51.478;5.710;2024-03-29T12:38:13;1.00;;;0.40;;
45338;SDS011;31071;51.478;5.710;2024-03-29T12:40:40;1.90;;;0.50;;
45338;SDS011;31071;51.478;5.710;2024-03-29T12:43:08;0.88;;;0.52;;
45338;SDS011;31071;51.478;5.710;2024-03-29T12:45:36;0.75;;;0.45;;
45338;SDS011;31071;51.478;5.710;2024-03-29T12:48:14;0.40;;;0.30;;
45338;SDS011;31071;51.478;5.710;2024-03-29T12:50:49;0.40;;;0.38;;
45338;SDS011;31071;51.478;5.710;2024-03-29T12:53:17;1.02;;;0.40;;
45338;SDS011;31071;51.478;5.710;2024-03-29T12:55:43;1.17;;;0.30;;
45338;SDS011;31071;51.478;5.710;2024-03-29T12:58:13;2.03;;;0.60;;
45338;SDS011;31071;51.478;5.710;2024-03-29T13:00:40;2.15;;;0.57;;
45338;SDS011;31071;51.478;5.710;2024-03-29T13:03:06;2.35;;;0.60;;
45338;SDS011;31071;51.478;5.710;2024-03-29T13:05:32;0.40;;;0.40;;
45338;SDS011;31071;51.478;5.710;2024-03-29T13:08:18;2.35;;;0.38;;
45338;SDS011;31071;51.478;5.710;2024-03-29T13:10:43;1.88;;;0.60;;
45338;SDS011;31071;51.478;5.710;2024-03-29T13:13:09;1.25;;;0.52;;
45338;SDS011;31071;51.478;5.710;2024-03-29T13:15:36;2.30;;;0.55;;
45338;SDS011;31071;51.478;5.710;2024-03-29T13:18:03;0.82;;;0.57;;
45338;SDS011;31071;51.478;5.710;2024-03-29T13:20:29;1.40;;;0.50;;
45338;SDS011;31071;51.478;5.710;2024-03-29T13:22:56;1.25;;;0.38;;
45338;SDS011;31071;51.478;5.710;2024-03-29T13:25:23;0.90;;;0.35;;
45338;SDS011;31071;51.478;5.710;2024-03-29T13:27:50;1.38;;;0.45;;
45338;SDS011;31071;51.478;5.710;2024-03-29T13:30:20;2.60;;;0.80;;
45338;SDS011;31071;51.478;5.710;2024-03-29T13:32:50;1.20;;;0.50;;
45338;SDS011;31071;51.478;5.710;2024-03-29T13:35:16;1.75;;;0.60;;
45338;SDS011;31071;51.478;5.710;2024-03-29T13:37:46;1.75;;;0.50;;
45338;SDS011;31071;51.478;5.710;2024-03-29T13:40:18;1.38;;;0.52;;
45338;SDS011;31071;51.478;5.710;2024-03-29T13:42:45;0.95;;;0.65;;
45338;SDS011;31071;51.478;5.710;2024-03-29T13:45:11;2.20;;;0.73;;
45338;SDS011;31071;51.478;5.710;2024-03-29T13:47:42;1.10;;;0.40;;
45338;SDS011;31071;51.478;5.710;2024-03-29T13:50:10;0.82;;;0.50;;
45338;SDS011;31071;51.478;5.710;2024-03-29T13:52:36;1.60;;;0.60;;
45338;SDS011;31071;51.478;5.710;2024-03-29T13:55:02;1.45;;;0.80;;
45338;SDS011;31071;51.478;5.710;2024-03-29T13:57:29;2.20;;;0.57;;
45338;SDS011;31071;51.478;5.710;2024-03-29T13:59:56;1.88;;;0.65;;
45338;SDS011;31071;51.478;5.710;2024-03-29T14:02:23;2.15;;;0.45;;
45338;SDS011;31071;51.478;5.710;2024-03-29T14:04:51;1.80;;;0.50;;
45338;SDS011;31071;51.478;5.710;2024-03-29T14:07:16;1.25;;;0.47;;
45338;SDS011;31071;51.478;5.710;2024-03-29T14:09:46;2.00;;;0.70;;
45338;SDS011;31071;51.478;5.710;2024-03-29T14:12:12;0.88;;;0.50;;
45338;SDS011;31071;51.478;5.710;2024-03-29T14:14:38;3.05;;;0.70;;
45338;SDS011;31071;51.478;5.710;2024-03-29T14:17:04;0.40;;;0.40;;
45338;SDS011;31071;51.478;5.710;2024-03-29T14:19:32;2.63;;;0.50;;
45338;SDS011;31071;51.478;5.710;2024-03-29T14:21:58;0.88;;;0.50;;
45338;SDS011;31071;51.478;5.710;2024-03-29T14:24:25;1.20;;;0.30;;
45338;SDS011;31071;51.478;5.710;2024-03-29T14:26:52;1.95;;;0.30;;
45338;SDS011;31071;51.478;5.710;2024-03-29T14:29:17;2.47;;;0.38;;
45338;SDS011;31071;51.478;5.710;2024-03-29T14:31:46;2.88;;;0.52;;
45338;SDS011;31071;51.478;5.710;2024-03-29T14:34:20;0.93;;;0.30;;
45338;SDS011;31071;51.478;5.710;2024-03-29T14:36:46;0.70;;;0.50;;
45338;SDS011;31071;51.478;5.710;2024-03-29T14:39:12;1.80;;;0.50;;
45338;SDS011;31071;51.478;5.710;2024-03-29T14:41:38;1.30;;;0.30;;
45338;SDS011;31071;51.478;5.710;2024-03-29T14:44:05;1.10;;;0.50;;
45338;SDS011;31071;51.478;5.710;2024-03-29T14:46:34;2.10;;;0.32;;
45338;SDS011;31071;51.478;5.710;2024-03-29T14:49:01;0.85;;;0.50;;
45338;SDS011;31071;51.478;5.710;2024-03-29T14:51:30;3.05;;;0.50;;
45338;SDS011;31071;51.478;5.710;2024-03-29T14:53:59;0.98;;;0.40;;
45338;SDS011;31071;51.478;5.710;2024-03-29T14:56:26;0.77;;;0.30;;
45338;SDS011;31071;51.478;5.710;2024-03-29T14:58:55;1.17;;;0.50;;
45338;SDS011;31071;51.478;5.710;2024-03-29T15:01:21;1.27;;;0.60;;
45338;SDS011;31071;51.478;5.710;2024-03-29T15:03:47;2.33;;;0.40;;